sensor_id;sensor_type;location;lat;lon;timestamp;temperature;humidity
10848;DHT22;5477;48.806;9.154;2023-04-28T00:00:00;11.20;99.90
10848;DHT22;5477;48.806;9.154;2023-04-28T00:02:30;11.20;99.90
10848;DHT22;5477;48.806;9.154;2023-04-28T00:05:00;11.20;99.90
10848;DHT22;5477;48.806;9.154;2023-04-28T00:07:28;11.30;99.90
10848;DHT22;5477;48.806;9.154;2023-04-28T00:09:57;11.30;99.90
10848;DHT22;5477;48.806;9.154;2023-04-28T00:12:25;11.40;99.90
10848;DHT22;5477;48.806;9.154;2023-04-28T00:14:53;11.40;99.90
10848;DHT22;5477;48.806;9.154;2023-04-28T00:17:21;11.40;99.90
10848;DHT22;5477;48.806;9.154;2023-04-28T00:19:49;11.40;99.90
10848;DHT22;5477;48.806;9.154;2023-04-28T00:22:18;11.40;99.90
10848;DHT22;5477;48.806;9.154;2023-04-28T00:24:46;11.50;99.90
10848;DHT22;5477;48.806;9.154;2023-04-28T00:27:15;11.50;99.90
10848;DHT22;5477;48.806;9.154;2023-04-28T00:29:43;11.50;99.90
10848;DHT22;5477;48.806;9.154;2023-04-28T00:32:11;11.50;99.90
10848;DHT22;5477;48.806;9.154;2023-04-28T00:34:40;11.50;99.90
10848;DHT22;5477;48.806;9.154;2023-04-28T00:37:08;11.40;99.90
10848;DHT22;5477;48.806;9.154;2023-04-28T00:39:36;11.40;99.90
10848;DHT22;5477;48.806;9.154;2023-04-28T00:42:04;11.30;99.90
10848;DHT22;5477;48.806;9.154;2023-04-28T00:44:33;11.40;99.90
10848;DHT22;5477;48.806;9.154;2023-04-28T00:47:01;11.40;99.90
10848;DHT22;5477;48.806;9.154;2023-04-28T00:49:29;11.40;99.90
10848;DHT22;5477;48.806;9.154;2023-04-28T00:51:58;11.40;99.90
10848;DHT22;5477;48.806;9.154;2023-04-28T00:54:29;11.40;99.90
10848;DHT22;5477;48.806;9.154;2023-04-28T00:56:57;11.50;99.90
10848;DHT22;5477;48.806;9.154;2023-04-28T00:59:25;11.40;99.90
10848;DHT22;5477;48.806;9.154;2023-04-28T01:01:54;11.40;99.90
10848;DHT22;5477;48.806;9.154;2023-04-28T01:04:23;11.40;99.90
10848;DHT22;5477;48.806;9.154;2023-04-28T01:06:52;11.40;99.90
10848;DHT22;5477;48.806;9.154;2023-04-28T01:09:22;11.40;99.90
10848;DHT22;5477;48.806;9.154;2023-04-28T01:11:51;11.50;99.90
10848;DHT22;5477;48.806;9.154;2023-04-28T01:14:42;11.50;99.90
10848;DHT22;5477;48.806;9.154;2023-04-28T01:17:12;11.60;99.90
10848;DHT22;5477;48.806;9.154;2023-04-28T01:19:40;11.60;99.90
10848;DHT22;5477;48.806;9.154;2023-04-28T01:22:08;11.60;99.90
10848;DHT22;5477;48.806;9.154;2023-04-28T01:24:41;11.60;99.90
10848;DHT22;5477;48.806;9.154;2023-04-28T01:27:10;11.60;99.90
10848;DHT22;5477;48.806;9.154;2023-04-28T01:29:40;11.60;99.90
10848;DHT22;5477;48.806;9.154;2023-04-28T01:32:08;11.60;99.90
10848;DHT22;5477;48.806;9.154;2023-04-28T01:34:36;11.60;99.90
10848;DHT22;5477;48.806;9.154;2023-04-28T01:37:05;11.60;99.90
10848;DHT22;5477;48.806;9.154;2023-04-28T01:39:35;11.60;99.90
10848;DHT22;5477;48.806;9.154;2023-04-28T01:42:05;11.60;99.90
10848;DHT22;5477;48.806;9.154;2023-04-28T01:44:33;11.60;99.90
10848;DHT22;5477;48.806;9.154;2023-04-28T01:47:01;11.70;99.90
10848;DHT22;5477;48.806;9.154;2023-04-28T01:49:29;11.90;99.90
10848;DHT22;5477;48.806;9.154;2023-04-28T01:51:58;11.90;99.90
10848;DHT22;5477;48.806;9.154;2023-04-28T01:54:26;12.00;99.90
10848;DHT22;5477;48.806;9.154;2023-04-28T01:56:54;12.00;99.90
10848;DHT22;5477;48.806;9.154;2023-04-28T01:59:25;12.00;99.90
10848;DHT22;5477;48.806;9.154;2023-04-28T02:01:53;12.00;99.90
10848;DHT22;5477;48.806;9.154;2023-04-28T02:04:21;12.00;99.90
10848;DHT22;5477;48.806;9.154;2023-04-28T02:06:49;11.90;99.90
10848;DHT22;5477;48.806;9.154;2023-04-28T02:09:17;11.90;99.90
10848;DHT22;5477;48.806;9.154;2023-04-28T02:11:45;11.90;99.90
10848;DHT22;5477;48.806;9.154;2023-04-28T02:14:13;12.00;99.90
10848;DHT22;5477;48.806;9.154;2023-04-28T02:16:43;12.00;99.90
10848;DHT22;5477;48.806;9.154;2023-04-28T02:19:11;12.00;99.90
10848;DHT22;5477;48.806;9.154;2023-04-28T02:21:40;12.10;99.90
10848;DHT22;5477;48.806;9.154;2023-04-28T02:24:08;12.20;99.90
10848;DHT22;5477;48.806;9.154;2023-04-28T02:26:36;12.30;99.90
10848;DHT22;5477;48.806;9.154;2023-04-28T02:29:04;12.30;99.90
10848;DHT22;5477;48.806;9.154;2023-04-28T02:31:32;12.20;99.90
10848;DHT22;5477;48.806;9.154;2023-04-28T02:34:01;12.10;99.90
10848;DHT22;5477;48.806;9.154;2023-04-28T02:36:29;12.00;99.90
10848;DHT22;5477;48.806;9.154;2023-04-28T02:38:58;12.00;99.90
10848;DHT22;5477;48.806;9.154;2023-04-28T02:41:26;12.10;99.90
10848;DHT22;5477;48.806;9.154;2023-04-28T02:43:56;12.10;99.90
10848;DHT22;5477;48.806;9.154;2023-04-28T02:46:24;12.20;99.90
10848;DHT22;5477;48.806;9.154;2023-04-28T02:48:52;12.30;99.90
10848;DHT22;5477;48.806;9.154;2023-04-28T02:51:21;12.40;99.90
10848;DHT22;5477;48.806;9.154;2023-04-28T02:53:49;12.50;99.90
10848;DHT22;5477;48.806;9.154;2023-04-28T02:56:17;12.50;99.90
10848;DHT22;5477;48.806;9.154;2023-04-28T02:58:45;12.60;99.90
10848;DHT22;5477;48.806;9.154;2023-04-28T03:01:13;12.70;99.90
10848;DHT22;5477;48.806;9.154;2023-04-28T03:03:41;12.70;99.90
10848;DHT22;5477;48.806;9.154;2023-04-28T03:06:09;12.80;99.90
10848;DHT22;5477;48.806;9.154;2023-04-28T03:08:39;12.70;99.90
10848;DHT22;5477;48.806;9.154;2023-04-28T03:11:07;12.80;99.90
10848;DHT22;5477;48.806;9.154;2023-04-28T03:13:34;12.80;99.90
10848;DHT22;5477;48.806;9.154;2023-04-28T03:16:04;12.90;99.90
10848;DHT22;5477;48.806;9.154;2023-04-28T03:18:32;12.80;99.90
10848;DHT22;5477;48.806;9.154;2023-04-28T03:21:01;12.80;99.90
10848;DHT22;5477;48.806;9.154;2023-04-28T03:23:29;12.80;99.90
10848;DHT22;5477;48.806;9.154;2023-04-28T03:25:58;12.70;99.90
10848;DHT22;5477;48.806;9.154;2023-04-28T03:28:27;12.70;99.90
10848;DHT22;5477;48.806;9.154;2023-04-28T03:30:58;12.80;99.90
10848;DHT22;5477;48.806;9.154;2023-04-28T03:33:26;12.80;99.90
10848;DHT22;5477;48.806;9.154;2023-04-28T03:35:55;12.80;99.90
10848;DHT22;5477;48.806;9.154;2023-04-28T03:38:23;12.80;99.90
10848;DHT22;5477;48.806;9.154;2023-04-28T03:40:51;12.80;99.90
10848;DHT22;5477;48.806;9.154;2023-04-28T03:43:20;12.90;99.90
10848;DHT22;5477;48.806;9.154;2023-04-28T03:46:04;13.00;99.90
10848;DHT22;5477;48.806;9.154;2023-04-28T03:48:33;12.90;99.90
10848;DHT22;5477;48.806;9.154;2023-04-28T03:51:01;12.90;99.90
10848;DHT22;5477;48.806;9.154;2023-04-28T03:53:30;12.80;99.90
10848;DHT22;5477;48.806;9.154;2023-04-28T03:55:58;12.80;99.90
10848;DHT22;5477;48.806;9.154;2023-04-28T03:58:27;12.70;99.90
10848;DHT22;5477;48.806;9.154;2023-04-28T04:00:55;12.60;99.90
10848;DHT22;5477;48.806;9.154;2023-04-28T04:03:23;12.60;99.90
10848;DHT22;5477;48.806;9.154;2023-04-28T04:05:55;12.60;99.90
10848;DHT22;5477;48.806;9.154;2023-04-28T04:08:23;12.60;99.90
10848;DHT22;5477;48.806;9.154;2023-04-28T04:10:51;12.50;99.90
10848;DHT22;5477;48.806;9.154;2023-04-28T04:13:20;12.50;99.90
10848;DHT22;5477;48.806;9.154;2023-04-28T04:15:50;12.50;99.90
10848;DHT22;5477;48.806;9.154;2023-04-28T04:18:21;12.60;99.90
10848;DHT22;5477;48.806;9.154;2023-04-28T04:21:11;12.70;99.90
10848;DHT22;5477;48.806;9.154;2023-04-28T04:23:39;12.70;99.90
10848;DHT22;5477;48.806;9.154;2023-04-28T04:26:07;12.60;99.90
10848;DHT22;5477;48.806;9.154;2023-04-28T04:28:36;12.60;99.90
10848;DHT22;5477;48.806;9.154;2023-04-28T04:31:07;12.50;99.90
10848;DHT22;5477;48.806;9.154;2023-04-28T04:33:35;12.50;99.90
10848;DHT22;5477;48.806;9.154;2023-04-28T04:36:06;12.40;99.90
10848;DHT22;5477;48.806;9.154;2023-04-28T04:38:34;12.40;99.90
10848;DHT22;5477;48.806;9.154;2023-04-28T04:41:14;12.50;99.90
10848;DHT22;5477;48.806;9.154;2023-04-28T04:43:42;12.50;99.90
10848;DHT22;5477;48.806;9.154;2023-04-28T04:46:12;12.50;99.90
10848;DHT22;5477;48.806;9.154;2023-04-28T04:48:40;12.50;99.90
10848;DHT22;5477;48.806;9.154;2023-04-28T04:51:09;12.50;99.90
10848;DHT22;5477;48.806;9.154;2023-04-28T04:53:38;12.50;99.90
10848;DHT22;5477;48.806;9.154;2023-04-28T04:56:06;12.50;99.90
10848;DHT22;5477;48.806;9.154;2023-04-28T04:58:37;12.50;99.90
10848;DHT22;5477;48.806;9.154;2023-04-28T05:01:26;12.50;99.90
10848;DHT22;5477;48.806;9.154;2023-04-28T05:03:54;12.50;99.90
10848;DHT22;5477;48.806;9.154;2023-04-28T05:06:22;12.50;99.90
10848;DHT22;5477;48.806;9.154;2023-04-28T05:08:50;12.50;99.90
10848;DHT22;5477;48.806;9.154;2023-04-28T05:11:18;12.50;99.90
10848;DHT22;5477;48.806;9.154;2023-04-28T05:13:46;12.50;99.90
10848;DHT22;5477;48.806;9.154;2023-04-28T05:16:14;12.60;99.90
10848;DHT22;5477;48.806;9.154;2023-04-28T05:18:44;12.60;99.90
10848;DHT22;5477;48.806;9.154;2023-04-28T05:21:12;12.60;99.90
10848;DHT22;5477;48.806;9.154;2023-04-28T05:23:40;12.60;99.90
10848;DHT22;5477;48.806;9.154;2023-04-28T05:26:08;12.60;99.90
10848;DHT22;5477;48.806;9.154;2023-04-28T05:28:37;12.60;99.90
10848;DHT22;5477;48.806;9.154;2023-04-28T05:31:06;12.60;99.90
10848;DHT22;5477;48.806;9.154;2023-04-28T05:33:34;12.60;99.90
10848;DHT22;5477;48.806;9.154;2023-04-28T05:36:05;12.60;99.90
10848;DHT22;5477;48.806;9.154;2023-04-28T05:38:34;12.50;99.90
10848;DHT22;5477;48.806;9.154;2023-04-28T05:41:02;12.50;99.90
10848;DHT22;5477;48.806;9.154;2023-04-28T05:43:30;12.50;99.90
10848;DHT22;5477;48.806;9.154;2023-04-28T05:45:59;12.40;99.90
10848;DHT22;5477;48.806;9.154;2023-04-28T05:48:28;12.40;99.90
10848;DHT22;5477;48.806;9.154;2023-04-28T05:50:56;12.50;99.90
10848;DHT22;5477;48.806;9.154;2023-04-28T05:53:25;12.50;99.90
10848;DHT22;5477;48.806;9.154;2023-04-28T05:55:53;12.60;99.90
10848;DHT22;5477;48.806;9.154;2023-04-28T05:58:22;12.60;99.90
10848;DHT22;5477;48.806;9.154;2023-04-28T06:00:50;12.70;99.90
10848;DHT22;5477;48.806;9.154;2023-04-28T06:03:19;12.70;99.90
10848;DHT22;5477;48.806;9.154;2023-04-28T06:05:47;12.70;99.90
10848;DHT22;5477;48.806;9.154;2023-04-28T06:08:16;12.70;99.90
10848;DHT22;5477;48.806;9.154;2023-04-28T06:10:46;12.70;99.90
10848;DHT22;5477;48.806;9.154;2023-04-28T06:13:13;12.70;99.90
10848;DHT22;5477;48.806;9.154;2023-04-28T06:15:42;12.60;99.90
10848;DHT22;5477;48.806;9.154;2023-04-28T06:18:09;12.60;99.90
10848;DHT22;5477;48.806;9.154;2023-04-28T06:20:37;12.70;99.90
10848;DHT22;5477;48.806;9.154;2023-04-28T06:23:05;12.70;99.90
10848;DHT22;5477;48.806;9.154;2023-04-28T06:25:40;12.70;99.90
10848;DHT22;5477;48.806;9.154;2023-04-28T06:28:10;12.80;99.90
10848;DHT22;5477;48.806;9.154;2023-04-28T06:30:39;12.80;99.90
10848;DHT22;5477;48.806;9.154;2023-04-28T06:33:07;12.80;99.90
10848;DHT22;5477;48.806;9.154;2023-04-28T06:35:35;12.80;99.90
10848;DHT22;5477;48.806;9.154;2023-04-28T06:38:05;12.80;99.90
10848;DHT22;5477;48.806;9.154;2023-04-28T06:40:33;12.80;99.90
10848;DHT22;5477;48.806;9.154;2023-04-28T06:43:03;12.80;99.90
10848;DHT22;5477;48.806;9.154;2023-04-28T06:45:38;12.80;99.90
10848;DHT22;5477;48.806;9.154;2023-04-28T06:48:06;12.90;99.90
10848;DHT22;5477;48.806;9.154;2023-04-28T06:50:37;12.90;99.90
10848;DHT22;5477;48.806;9.154;2023-04-28T06:53:08;13.00;99.90
10848;DHT22;5477;48.806;9.154;2023-04-28T06:55:36;13.00;99.90
10848;DHT22;5477;48.806;9.154;2023-04-28T06:58:03;13.00;99.90
10848;DHT22;5477;48.806;9.154;2023-04-28T07:00:33;13.00;99.90
10848;DHT22;5477;48.806;9.154;2023-04-28T07:03:02;13.00;99.90
10848;DHT22;5477;48.806;9.154;2023-04-28T07:05:31;13.10;99.90
10848;DHT22;5477;48.806;9.154;2023-04-28T07:08:00;13.10;99.90
10848;DHT22;5477;48.806;9.154;2023-04-28T07:10:28;13.20;99.90
10848;DHT22;5477;48.806;9.154;2023-04-28T07:12:56;13.20;99.90
10848;DHT22;5477;48.806;9.154;2023-04-28T07:15:24;13.20;99.90
10848;DHT22;5477;48.806;9.154;2023-04-28T07:17:52;13.20;99.90
10848;DHT22;5477;48.806;9.154;2023-04-28T07:20:22;13.20;99.90
10848;DHT22;5477;48.806;9.154;2023-04-28T07:22:50;13.30;99.90
10848;DHT22;5477;48.806;9.154;2023-04-28T07:25:18;13.30;99.90
10848;DHT22;5477;48.806;9.154;2023-04-28T07:27:46;13.40;99.90
10848;DHT22;5477;48.806;9.154;2023-04-28T07:30:14;13.40;99.90
10848;DHT22;5477;48.806;9.154;2023-04-28T07:32:53;13.50;99.90
10848;DHT22;5477;48.806;9.154;2023-04-28T07:35:23;13.50;99.90
10848;DHT22;5477;48.806;9.154;2023-04-28T07:37:52;13.60;99.90
10848;DHT22;5477;48.806;9.154;2023-04-28T07:40:20;13.60;99.90
10848;DHT22;5477;48.806;9.154;2023-04-28T07:42:48;13.60;99.90
10848;DHT22;5477;48.806;9.154;2023-04-28T07:45:17;13.70;99.90
10848;DHT22;5477;48.806;9.154;2023-04-28T07:47:45;13.70;99.90
10848;DHT22;5477;48.806;9.154;2023-04-28T07:50:13;13.70;99.90
10848;DHT22;5477;48.806;9.154;2023-04-28T07:52:43;13.80;99.90
10848;DHT22;5477;48.806;9.154;2023-04-28T07:55:11;13.80;99.90
10848;DHT22;5477;48.806;9.154;2023-04-28T07:57:39;13.80;99.90
10848;DHT22;5477;48.806;9.154;2023-04-28T08:00:08;13.80;99.90
10848;DHT22;5477;48.806;9.154;2023-04-28T08:02:38;13.90;99.90
10848;DHT22;5477;48.806;9.154;2023-04-28T08:05:07;13.90;99.90
10848;DHT22;5477;48.806;9.154;2023-04-28T08:07:36;13.90;99.90
10848;DHT22;5477;48.806;9.154;2023-04-28T08:10:07;13.80;99.90
10848;DHT22;5477;48.806;9.154;2023-04-28T08:12:35;13.70;99.90
10848;DHT22;5477;48.806;9.154;2023-04-28T08:15:04;13.80;99.90
10848;DHT22;5477;48.806;9.154;2023-04-28T08:17:32;13.70;99.90
10848;DHT22;5477;48.806;9.154;2023-04-28T08:20:00;13.80;99.90
10848;DHT22;5477;48.806;9.154;2023-04-28T08:22:27;13.80;99.90
10848;DHT22;5477;48.806;9.154;2023-04-28T08:24:56;13.80;99.90
10848;DHT22;5477;48.806;9.154;2023-04-28T08:27:25;13.60;99.90
10848;DHT22;5477;48.806;9.154;2023-04-28T08:29:53;13.60;99.90
10848;DHT22;5477;48.806;9.154;2023-04-28T08:32:21;13.30;99.90
10848;DHT22;5477;48.806;9.154;2023-04-28T08:34:49;13.10;99.90
10848;DHT22;5477;48.806;9.154;2023-04-28T08:37:17;13.10;99.90
10848;DHT22;5477;48.806;9.154;2023-04-28T08:39:45;13.00;99.90
10848;DHT22;5477;48.806;9.154;2023-04-28T08:42:13;13.00;99.90
10848;DHT22;5477;48.806;9.154;2023-04-28T08:44:43;13.10;99.90
10848;DHT22;5477;48.806;9.154;2023-04-28T08:47:12;13.10;99.90
10848;DHT22;5477;48.806;9.154;2023-04-28T08:49:41;13.20;99.90
10848;DHT22;5477;48.806;9.154;2023-04-28T08:52:12;13.30;99.90
10848;DHT22;5477;48.806;9.154;2023-04-28T08:54:44;13.30;99.90
10848;DHT22;5477;48.806;9.154;2023-04-28T08:57:13;13.40;99.90
10848;DHT22;5477;48.806;9.154;2023-04-28T08:59:43;13.40;99.90
10848;DHT22;5477;48.806;9.154;2023-04-28T09:02:11;13.50;99.90
10848;DHT22;5477;48.806;9.154;2023-04-28T09:04:39;13.50;99.90
10848;DHT22;5477;48.806;9.154;2023-04-28T09:07:10;13.50;99.90
10848;DHT22;5477;48.806;9.154;2023-04-28T09:09:38;13.50;99.90
10848;DHT22;5477;48.806;9.154;2023-04-28T09:12:07;13.50;99.90
10848;DHT22;5477;48.806;9.154;2023-04-28T09:14:35;13.50;99.90
10848;DHT22;5477;48.806;9.154;2023-04-28T09:17:10;13.60;99.90
10848;DHT22;5477;48.806;9.154;2023-04-28T09:19:39;13.60;99.90
10848;DHT22;5477;48.806;9.154;2023-04-28T09:22:09;13.60;99.90
10848;DHT22;5477;48.806;9.154;2023-04-28T09:24:52;13.70;99.90
10848;DHT22;5477;48.806;9.154;2023-04-28T09:27:25;13.90;99.90
10848;DHT22;5477;48.806;9.154;2023-04-28T09:29:53;13.90;99.90
10848;DHT22;5477;48.806;9.154;2023-04-28T09:32:23;13.90;99.90
10848;DHT22;5477;48.806;9.154;2023-04-28T09:34:54;14.00;99.90
10848;DHT22;5477;48.806;9.154;2023-04-28T09:37:25;14.10;99.90
10848;DHT22;5477;48.806;9.154;2023-04-28T09:40:01;14.20;99.90
10848;DHT22;5477;48.806;9.154;2023-04-28T09:42:31;14.30;99.90
10848;DHT22;5477;48.806;9.154;2023-04-28T09:44:59;14.40;99.90
10848;DHT22;5477;48.806;9.154;2023-04-28T09:47:31;14.60;99.90
10848;DHT22;5477;48.806;9.154;2023-04-28T09:50:02;14.80;99.90
10848;DHT22;5477;48.806;9.154;2023-04-28T09:52:32;15.00;99.90
10848;DHT22;5477;48.806;9.154;2023-04-28T09:55:01;15.10;99.90
10848;DHT22;5477;48.806;9.154;2023-04-28T09:57:30;15.20;99.90
10848;DHT22;5477;48.806;9.154;2023-04-28T10:00:00;15.20;99.90
10848;DHT22;5477;48.806;9.154;2023-04-28T10:02:34;15.30;99.90
10848;DHT22;5477;48.806;9.154;2023-04-28T10:05:05;15.50;99.90
10848;DHT22;5477;48.806;9.154;2023-04-28T10:07:36;15.80;99.90
10848;DHT22;5477;48.806;9.154;2023-04-28T10:10:06;16.10;99.90
10848;DHT22;5477;48.806;9.154;2023-04-28T10:12:34;16.30;99.90
10848;DHT22;5477;48.806;9.154;2023-04-28T10:15:05;16.40;99.90
10848;DHT22;5477;48.806;9.154;2023-04-28T10:17:35;16.50;99.90
10848;DHT22;5477;48.806;9.154;2023-04-28T10:20:04;16.50;99.90
10848;DHT22;5477;48.806;9.154;2023-04-28T10:22:49;16.40;99.90
10848;DHT22;5477;48.806;9.154;2023-04-28T10:25:30;16.60;99.90
10848;DHT22;5477;48.806;9.154;2023-04-28T10:28:03;16.60;99.90
10848;DHT22;5477;48.806;9.154;2023-04-28T10:30:31;16.70;99.90
10848;DHT22;5477;48.806;9.154;2023-04-28T10:33:24;17.10;99.90
10848;DHT22;5477;48.806;9.154;2023-04-28T10:35:53;17.10;99.90
10848;DHT22;5477;48.806;9.154;2023-04-28T10:38:21;17.20;99.90
10848;DHT22;5477;48.806;9.154;2023-04-28T10:40:49;17.20;99.90
10848;DHT22;5477;48.806;9.154;2023-04-28T10:43:39;17.20;99.90
10848;DHT22;5477;48.806;9.154;2023-04-28T10:46:08;17.30;99.90
10848;DHT22;5477;48.806;9.154;2023-04-28T10:48:54;17.40;99.90
10848;DHT22;5477;48.806;9.154;2023-04-28T10:51:27;17.20;99.90
10848;DHT22;5477;48.806;9.154;2023-04-28T10:54:15;17.10;99.90
10848;DHT22;5477;48.806;9.154;2023-04-28T10:57:17;17.10;99.90
10848;DHT22;5477;48.806;9.154;2023-04-28T10:59:49;17.10;99.90
10848;DHT22;5477;48.806;9.154;2023-04-28T11:02:38;17.20;99.90
10848;DHT22;5477;48.806;9.154;2023-04-28T11:05:12;17.30;99.90
10848;DHT22;5477;48.806;9.154;2023-04-28T11:11:21;17.80;99.90
10848;DHT22;5477;48.806;9.154;2023-04-28T11:13:51;17.60;99.90
10848;DHT22;5477;48.806;9.154;2023-04-28T11:16:22;17.60;99.90
10848;DHT22;5477;48.806;9.154;2023-04-28T11:18:56;17.70;99.90
10848;DHT22;5477;48.806;9.154;2023-04-28T11:21:26;17.70;99.90
10848;DHT22;5477;48.806;9.154;2023-04-28T11:23:55;17.80;99.90
10848;DHT22;5477;48.806;9.154;2023-04-28T11:26:24;17.90;99.90
10848;DHT22;5477;48.806;9.154;2023-04-28T11:28:54;18.00;99.90
10848;DHT22;5477;48.806;9.154;2023-04-28T11:31:24;18.10;99.90
10848;DHT22;5477;48.806;9.154;2023-04-28T11:33:56;18.20;99.90
10848;DHT22;5477;48.806;9.154;2023-04-28T11:36:30;18.30;99.90
10848;DHT22;5477;48.806;9.154;2023-04-28T11:38:59;18.60;99.90
10848;DHT22;5477;48.806;9.154;2023-04-28T11:41:27;18.50;99.90
10848;DHT22;5477;48.806;9.154;2023-04-28T11:43:55;18.50;99.90
10848;DHT22;5477;48.806;9.154;2023-04-28T11:46:24;18.50;99.90
10848;DHT22;5477;48.806;9.154;2023-04-28T11:49:03;18.60;99.90
10848;DHT22;5477;48.806;9.154;2023-04-28T11:51:37;18.70;99.90
10848;DHT22;5477;48.806;9.154;2023-04-28T11:54:05;19.00;99.90
10848;DHT22;5477;48.806;9.154;2023-04-28T11:56:38;19.30;99.90
10848;DHT22;5477;48.806;9.154;2023-04-28T11:59:07;19.50;99.90
10848;DHT22;5477;48.806;9.154;2023-04-28T12:01:44;19.40;99.90
10848;DHT22;5477;48.806;9.154;2023-04-28T12:04:12;19.50;99.90
10848;DHT22;5477;48.806;9.154;2023-04-28T12:06:42;19.40;99.90
10848;DHT22;5477;48.806;9.154;2023-04-28T12:09:17;19.40;99.90
10848;DHT22;5477;48.806;9.154;2023-04-28T12:11:54;19.40;99.90
10848;DHT22;5477;48.806;9.154;2023-04-28T12:14:23;19.50;99.90
10848;DHT22;5477;48.806;9.154;2023-04-28T12:16:51;19.30;99.90
10848;DHT22;5477;48.806;9.154;2023-04-28T12:19:19;19.10;99.90
10848;DHT22;5477;48.806;9.154;2023-04-28T12:22:03;19.10;99.90
10848;DHT22;5477;48.806;9.154;2023-04-28T12:24:32;19.00;99.90
10848;DHT22;5477;48.806;9.154;2023-04-28T12:27:15;19.10;99.90
10848;DHT22;5477;48.806;9.154;2023-04-28T12:29:44;19.20;99.90
10848;DHT22;5477;48.806;9.154;2023-04-28T12:32:13;19.20;99.90
10848;DHT22;5477;48.806;9.154;2023-04-28T12:34:43;19.10;99.90
10848;DHT22;5477;48.806;9.154;2023-04-28T12:37:12;18.90;99.90
10848;DHT22;5477;48.806;9.154;2023-04-28T12:39:41;18.80;99.90
10848;DHT22;5477;48.806;9.154;2023-04-28T12:42:09;18.80;99.90
10848;DHT22;5477;48.806;9.154;2023-04-28T12:44:37;18.80;99.90
10848;DHT22;5477;48.806;9.154;2023-04-28T12:47:07;18.70;99.90
10848;DHT22;5477;48.806;9.154;2023-04-28T12:49:36;18.40;99.90
10848;DHT22;5477;48.806;9.154;2023-04-28T12:52:05;18.20;99.90
10848;DHT22;5477;48.806;9.154;2023-04-28T12:54:35;18.00;99.90
10848;DHT22;5477;48.806;9.154;2023-04-28T12:57:03;17.90;99.90
10848;DHT22;5477;48.806;9.154;2023-04-28T12:59:32;17.90;99.90
10848;DHT22;5477;48.806;9.154;2023-04-28T13:02:00;17.90;99.90
10848;DHT22;5477;48.806;9.154;2023-04-28T13:04:28;17.90;99.90
10848;DHT22;5477;48.806;9.154;2023-04-28T13:06:58;17.80;99.90
10848;DHT22;5477;48.806;9.154;2023-04-28T13:09:26;17.80;99.90
10848;DHT22;5477;48.806;9.154;2023-04-28T13:11:55;17.70;99.90
10848;DHT22;5477;48.806;9.154;2023-04-28T13:14:25;17.80;99.90
10848;DHT22;5477;48.806;9.154;2023-04-28T13:16:53;17.90;99.90
10848;DHT22;5477;48.806;9.154;2023-04-28T13:19:21;17.90;99.90
10848;DHT22;5477;48.806;9.154;2023-04-28T13:21:49;17.80;99.90
10848;DHT22;5477;48.806;9.154;2023-04-28T13:24:17;17.90;99.90
10848;DHT22;5477;48.806;9.154;2023-04-28T13:26:46;18.00;99.90
10848;DHT22;5477;48.806;9.154;2023-04-28T13:29:15;18.00;99.90
10848;DHT22;5477;48.806;9.154;2023-04-28T13:31:44;18.00;99.90
10848;DHT22;5477;48.806;9.154;2023-04-28T13:34:12;18.00;99.90
10848;DHT22;5477;48.806;9.154;2023-04-28T13:36:42;18.00;99.90
10848;DHT22;5477;48.806;9.154;2023-04-28T13:39:10;17.90;99.90
10848;DHT22;5477;48.806;9.154;2023-04-28T13:41:40;17.80;99.90
10848;DHT22;5477;48.806;9.154;2023-04-28T13:44:08;17.70;99.90
10848;DHT22;5477;48.806;9.154;2023-04-28T13:46:38;17.70;99.90
10848;DHT22;5477;48.806;9.154;2023-04-28T13:49:05;17.70;99.90
10848;DHT22;5477;48.806;9.154;2023-04-28T13:51:34;17.70;99.90
10848;DHT22;5477;48.806;9.154;2023-04-28T13:54:02;17.60;99.90
10848;DHT22;5477;48.806;9.154;2023-04-28T13:56:31;17.60;99.90
10848;DHT22;5477;48.806;9.154;2023-04-28T13:58:59;17.50;99.90
10848;DHT22;5477;48.806;9.154;2023-04-28T14:01:27;17.50;99.90
10848;DHT22;5477;48.806;9.154;2023-04-28T14:03:56;17.60;99.90
10848;DHT22;5477;48.806;9.154;2023-04-28T14:06:26;17.60;99.90
10848;DHT22;5477;48.806;9.154;2023-04-28T14:08:54;17.60;99.90
10848;DHT22;5477;48.806;9.154;2023-04-28T14:11:22;17.50;99.90
10848;DHT22;5477;48.806;9.154;2023-04-28T14:13:50;17.50;99.90
10848;DHT22;5477;48.806;9.154;2023-04-28T14:16:19;17.40;99.90
10848;DHT22;5477;48.806;9.154;2023-04-28T14:18:47;17.40;99.90
10848;DHT22;5477;48.806;9.154;2023-04-28T14:21:16;17.40;99.90
10848;DHT22;5477;48.806;9.154;2023-04-28T14:23:44;17.40;99.90
10848;DHT22;5477;48.806;9.154;2023-04-28T14:26:13;17.30;99.90
10848;DHT22;5477;48.806;9.154;2023-04-28T14:28:40;17.20;99.90
10848;DHT22;5477;48.806;9.154;2023-04-28T14:31:11;17.10;99.90
10848;DHT22;5477;48.806;9.154;2023-04-28T14:33:39;17.10;99.90
10848;DHT22;5477;48.806;9.154;2023-04-28T14:36:07;17.10;99.90
10848;DHT22;5477;48.806;9.154;2023-04-28T14:38:36;17.20;99.90
10848;DHT22;5477;48.806;9.154;2023-04-28T14:41:06;17.20;99.90
10848;DHT22;5477;48.806;9.154;2023-04-28T14:43:34;17.30;99.90
10848;DHT22;5477;48.806;9.154;2023-04-28T14:46:02;17.50;99.90
10848;DHT22;5477;48.806;9.154;2023-04-28T14:48:30;17.50;99.90
10848;DHT22;5477;48.806;9.154;2023-04-28T14:50:59;17.70;99.90
10848;DHT22;5477;48.806;9.154;2023-04-28T14:53:27;17.70;99.90
10848;DHT22;5477;48.806;9.154;2023-04-28T14:55:57;17.70;99.90
10848;DHT22;5477;48.806;9.154;2023-04-28T14:58:44;17.80;99.90
10848;DHT22;5477;48.806;9.154;2023-04-28T15:01:12;17.70;99.90
10848;DHT22;5477;48.806;9.154;2023-04-28T15:03:40;17.70;99.90
10848;DHT22;5477;48.806;9.154;2023-04-28T15:06:09;17.60;99.90
10848;DHT22;5477;48.806;9.154;2023-04-28T15:08:37;17.50;99.90
10848;DHT22;5477;48.806;9.154;2023-04-28T15:11:07;17.50;99.90
10848;DHT22;5477;48.806;9.154;2023-04-28T15:13:35;17.60;99.90
10848;DHT22;5477;48.806;9.154;2023-04-28T15:16:05;17.60;99.90
10848;DHT22;5477;48.806;9.154;2023-04-28T15:18:33;17.60;99.90
10848;DHT22;5477;48.806;9.154;2023-04-28T15:21:02;17.50;99.90
10848;DHT22;5477;48.806;9.154;2023-04-28T15:23:30;17.40;99.90
10848;DHT22;5477;48.806;9.154;2023-04-28T15:25:58;17.30;99.90
10848;DHT22;5477;48.806;9.154;2023-04-28T15:28:28;17.40;99.90
10848;DHT22;5477;48.806;9.154;2023-04-28T15:30:56;17.50;99.90
10848;DHT22;5477;48.806;9.154;2023-04-28T15:33:24;17.50;99.90
10848;DHT22;5477;48.806;9.154;2023-04-28T15:35:52;17.40;99.90
10848;DHT22;5477;48.806;9.154;2023-04-28T15:38:20;17.30;99.90
10848;DHT22;5477;48.806;9.154;2023-04-28T15:40:48;17.10;99.90
10848;DHT22;5477;48.806;9.154;2023-04-28T15:43:16;17.00;99.90
10848;DHT22;5477;48.806;9.154;2023-04-28T15:45:45;16.80;99.90
10848;DHT22;5477;48.806;9.154;2023-04-28T15:48:13;16.70;99.90
10848;DHT22;5477;48.806;9.154;2023-04-28T15:50:42;16.60;99.90
10848;DHT22;5477;48.806;9.154;2023-04-28T15:53:10;16.40;99.90
10848;DHT22;5477;48.806;9.154;2023-04-28T15:55:38;16.30;99.90
10848;DHT22;5477;48.806;9.154;2023-04-28T15:58:06;16.30;99.90
10848;DHT22;5477;48.806;9.154;2023-04-28T16:00:35;16.30;99.90
10848;DHT22;5477;48.806;9.154;2023-04-28T16:03:04;16.40;99.90